createdAt,value
2019-01-21T06:52:38.037Z,1013.26
2019-01-21T06:53:38.014Z,1013.29
2019-01-21T06:54:38.010Z,1013.32
2019-01-21T06:55:38.001Z,1013.29
2019-01-21T06:56:37.982Z,1013.27
2019-01-21T06:57:39.798Z,1013.29
2019-01-21T06:58:37.965Z,1013.28
2019-01-21T06:59:37.968Z,1013.22
2019-01-21T07:00:37.941Z,1013.23
2019-01-21T07:01:37.928Z,1013.22
2019-01-21T07:02:37.914Z,1013.23
2019-01-21T07:03:37.916Z,1013.30
2019-01-21T07:04:37.903Z,1013.27
2019-01-21T07:05:37.888Z,1013.33
2019-01-21T07:06:37.901Z,1013.26
2019-01-21T07:07:37.943Z,1013.24
2019-01-21T07:08:37.856Z,1013.24
2019-01-21T07:09:37.854Z,1013.21
2019-01-21T07:10:37.827Z,1013.20
2019-01-21T07:11:37.814Z,1013.21
2019-01-21T07:12:37.974Z,1013.19
2019-01-21T07:13:37.804Z,1013.17
2019-01-21T07:14:37.781Z,1013.21
2019-01-21T07:15:37.869Z,1013.16
2019-01-21T07:16:37.761Z,1013.19
2019-01-21T07:17:37.760Z,1013.18
2019-01-21T07:18:37.816Z,1013.15
2019-01-21T07:19:37.748Z,1013.16
2019-01-21T07:20:37.758Z,1013.21
2019-01-21T07:21:37.709Z,1013.22
2019-01-21T07:22:37.728Z,1013.25
2019-01-21T07:23:37.729Z,1013.29
2019-01-21T07:24:37.675Z,1013.27
2019-01-21T07:25:37.716Z,1013.27
2019-01-21T07:26:37.671Z,1013.31
2019-01-21T07:27:37.649Z,1013.31
2019-01-21T07:28:37.632Z,1013.35
2019-01-21T07:29:37.662Z,1013.34
2019-01-21T07:30:37.621Z,1013.25
2019-01-21T07:31:37.591Z,1013.29
2019-01-21T07:32:37.601Z,1013.27
2019-01-21T07:33:37.584Z,1013.27
2019-01-21T07:34:37.567Z,1013.23
2019-01-21T07:35:37.573Z,1013.23
2019-01-21T07:36:37.550Z,1013.25
2019-01-21T07:37:37.551Z,1013.27
2019-01-21T07:38:37.611Z,1013.26
2019-01-21T07:39:37.546Z,1013.30
2019-01-21T07:40:37.523Z,1013.29
2019-01-21T07:41:37.595Z,1013.27
2019-01-21T07:42:37.490Z,1013.23
2019-01-21T07:43:37.496Z,1013.23
2019-01-21T07:44:37.532Z,1013.23
2019-01-21T07:45:41.323Z,1013.25
2019-01-21T07:46:37.434Z,1013.26
2019-01-21T07:47:37.440Z,1013.25
2019-01-21T07:48:37.507Z,1013.22
2019-01-21T07:49:37.436Z,1013.26
2019-01-21T07:50:37.401Z,1013.25
2019-01-21T07:51:37.385Z,1013.23
2019-01-21T07:52:37.383Z,1013.22
2019-01-21T07:53:37.370Z,1013.24
2019-01-21T07:54:38.488Z,1013.21
2019-01-21T07:55:37.414Z,1013.23
2019-01-21T07:56:37.507Z,1013.19
2019-01-21T07:57:38.315Z,1013.23
2019-01-21T07:58:37.347Z,1013.25
2019-01-21T07:59:38.682Z,1013.29
2019-01-21T08:00:52.863Z,1013.20
